Terminal Aerodrome Forecast
Issued by NWS Detroit/Pontiac, MI

Home | Current Version | Previous Version | Text Only | Print | Product List | Glossary On
Versions: 1 2 3 4 5 6 7 8 9 10 11 12 13 14 15 16 17 18 19 20 21 22 23
000
FTUS43 KDTX 272123 AAB
TAFDTW
TAF AMD
KDTW 272123Z 2721/2824 03007KT P6SM BKN060
      TEMPO 2722/2724 4SM -SHRA
     FM280100 03005KT P6SM SCT250
     FM280900 04004KT P6SM SCT025=

USA.gov is the U.S. government's official web portal to all federal, state and local government web resources and services.